sensor_id;sensor_type;location;lat;lon;timestamp;pressure;altitude;pressure_sealevel;temperature;humidity
76022;BME280;64718;52.124;6.226;2023-08-06T00:01:53;100477.50;;;14.66;100.00
76022;BME280;64718;52.124;6.226;2023-08-06T00:04:21;100480.41;;;14.61;100.00
76022;BME280;64718;52.124;6.226;2023-08-06T00:06:47;100483.03;;;14.61;100.00
76022;BME280;64718;52.124;6.226;2023-08-06T00:09:14;100479.47;;;14.62;100.00
76022;BME280;64718;52.124;6.226;2023-08-06T00:11:40;100482.75;;;14.66;100.00
76022;BME280;64718;52.124;6.226;2023-08-06T00:14:09;100478.53;;;14.63;100.00
76022;BME280;64718;52.124;6.226;2023-08-06T00:16:35;100481.81;;;14.67;100.00
76022;BME280;64718;52.124;6.226;2023-08-06T00:19:02;100483.28;;;14.71;100.00
76022;BME280;64718;52.124;6.226;2023-08-06T00:21:30;100480.66;;;14.71;100.00
76022;BME280;64718;52.124;6.226;2023-08-06T00:23:56;100479.19;;;14.67;100.00
76022;BME280;64718;52.124;6.226;2023-08-06T00:26:23;100474.47;;;14.72;100.00
76022;BME280;64718;52.124;6.226;2023-08-06T00:28:50;100466.44;;;14.75;100.00
76022;BME280;64718;52.124;6.226;2023-08-06T00:31:17;100468.00;;;14.77;100.00
76022;BME280;64718;52.124;6.226;2023-08-06T00:33:43;100467.16;;;14.77;100.00
76022;BME280;64718;52.124;6.226;2023-08-06T00:36:10;100473.25;;;14.77;100.00
76022;BME280;64718;52.124;6.226;2023-08-06T00:38:38;100470.22;;;14.83;100.00
76022;BME280;64718;52.124;6.226;2023-08-06T00:41:04;100479.75;;;14.84;100.00
76022;BME280;64718;52.124;6.226;2023-08-06T00:43:31;100468.44;;;14.84;100.00
76022;BME280;64718;52.124;6.226;2023-08-06T00:45:57;100468.34;;;14.85;100.00
76022;BME280;64718;52.124;6.226;2023-08-06T00:48:23;100467.59;;;14.83;100.00
76022;BME280;64718;52.124;6.226;2023-08-06T00:50:50;100458.16;;;14.81;100.00
76022;BME280;64718;52.124;6.226;2023-08-06T00:53:17;100460.78;;;14.81;100.00
76022;BME280;64718;52.124;6.226;2023-08-06T00:55:45;100461.31;;;14.86;100.00
76022;BME280;64718;52.124;6.226;2023-08-06T00:58:12;100462.34;;;14.83;100.00
76022;BME280;64718;52.124;6.226;2023-08-06T01:00:39;100461.41;;;14.84;100.00
76022;BME280;64718;52.124;6.226;2023-08-06T01:03:06;100463.09;;;14.85;100.00
76022;BME280;64718;52.124;6.226;2023-08-06T01:05:32;100468.44;;;14.84;100.00
76022;BME280;64718;52.124;6.226;2023-08-06T01:08:10;100459.75;;;14.83;100.00
76022;BME280;64718;52.124;6.226;2023-08-06T01:10:53;100460.56;;;14.84;100.00
76022;BME280;64718;52.124;6.226;2023-08-06T01:13:32;100458.06;;;14.82;100.00
76022;BME280;64718;52.124;6.226;2023-08-06T01:16:00;100468.44;;;14.84;100.00
76022;BME280;64718;52.124;6.226;2023-08-06T01:18:28;100455.34;;;14.84;100.00
76022;BME280;64718;52.124;6.226;2023-08-06T01:20:55;100451.16;;;14.81;100.00
76022;BME280;64718;52.124;6.226;2023-08-06T01:23:22;100457.22;;;14.82;100.00
76022;BME280;64718;52.124;6.226;2023-08-06T01:25:56;100454.50;;;14.83;100.00
76022;BME280;64718;52.124;6.226;2023-08-06T01:28:33;100449.16;;;14.85;100.00
76022;BME280;64718;52.124;6.226;2023-08-06T01:31:05;100458.47;;;14.76;100.00
76022;BME280;64718;52.124;6.226;2023-08-06T01:33:37;100463.06;;;14.73;100.00
76022;BME280;64718;52.124;6.226;2023-08-06T01:36:09;100458.97;;;14.69;100.00
76022;BME280;64718;52.124;6.226;2023-08-06T01:38:36;100454.69;;;14.68;100.00
76022;BME280;64718;52.124;6.226;2023-08-06T01:41:02;100450.59;;;14.64;100.00
76022;BME280;64718;52.124;6.226;2023-08-06T01:43:29;100459.59;;;14.60;100.00
76022;BME280;64718;52.124;6.226;2023-08-06T01:45:55;100449.00;;;14.61;100.00
76022;BME280;64718;52.124;6.226;2023-08-06T01:48:22;100444.50;;;14.63;100.00
76022;BME280;64718;52.124;6.226;2023-08-06T01:50:48;100449.53;;;14.66;100.00
76022;BME280;64718;52.124;6.226;2023-08-06T01:53:17;100449.53;;;14.66;100.00
76022;BME280;64718;52.124;6.226;2023-08-06T01:55:47;100456.03;;;14.61;100.00
76022;BME280;64718;52.124;6.226;2023-08-06T01:58:13;100454.16;;;14.63;100.00
76022;BME280;64718;52.124;6.226;2023-08-06T02:00:40;100449.84;;;14.62;100.00
76022;BME280;64718;52.124;6.226;2023-08-06T02:03:07;100451.22;;;14.67;100.00
76022;BME280;64718;52.124;6.226;2023-08-06T02:05:33;100446.94;;;14.66;100.00
76022;BME280;64718;52.124;6.226;2023-08-06T02:08:00;100453.00;;;14.67;100.00
76022;BME280;64718;52.124;6.226;2023-08-06T02:10:28;100445.06;;;14.68;100.00
76022;BME280;64718;52.124;6.226;2023-08-06T02:12:54;100457.09;;;14.71;100.00
76022;BME280;64718;52.124;6.226;2023-08-06T02:15:21;100452.59;;;14.73;100.00
76022;BME280;64718;52.124;6.226;2023-08-06T02:17:47;100451.66;;;14.74;100.00
76022;BME280;64718;52.124;6.226;2023-08-06T02:20:14;100452.50;;;14.74;100.00
76022;BME280;64718;52.124;6.226;2023-08-06T02:22:41;100448.41;;;14.70;100.00
76022;BME280;64718;52.124;6.226;2023-08-06T02:25:07;100440.56;;;14.70;100.00
76022;BME280;64718;52.124;6.226;2023-08-06T02:27:37;100444.94;;;14.70;100.00
76022;BME280;64718;52.124;6.226;2023-08-06T02:30:04;100436.16;;;14.71;100.00
76022;BME280;64718;52.124;6.226;2023-08-06T02:32:31;100433.53;;;14.71;100.00
76022;BME280;64718;52.124;6.226;2023-08-06T02:35:00;100429.03;;;14.73;100.00
76022;BME280;64718;52.124;6.226;2023-08-06T02:37:27;100432.59;;;14.72;100.00
76022;BME280;64718;52.124;6.226;2023-08-06T02:39:54;100431.13;;;14.80;100.00
76022;BME280;64718;52.124;6.226;2023-08-06T02:42:20;100425.56;;;14.72;100.00
76022;BME280;64718;52.124;6.226;2023-08-06T02:44:50;100428.31;;;14.71;100.00
76022;BME280;64718;52.124;6.226;2023-08-06T02:47:16;100419.50;;;14.72;100.00
76022;BME280;64718;52.124;6.226;2023-08-06T02:49:43;100424.63;;;14.73;100.00
76022;BME280;64718;52.124;6.226;2023-08-06T02:52:10;100427.16;;;14.75;100.00
76022;BME280;64718;52.124;6.226;2023-08-06T02:54:36;100421.81;;;14.76;100.00
76022;BME280;64718;52.124;6.226;2023-08-06T02:59:34;100417.09;;;14.81;100.00
76022;BME280;64718;52.124;6.226;2023-08-06T03:02:02;100416.28;;;14.81;100.00
76022;BME280;64718;52.124;6.226;2023-08-06T03:04:28;100406.84;;;14.78;100.00
76022;BME280;64718;52.124;6.226;2023-08-06T03:06:55;100408.72;;;14.76;100.00
76022;BME280;64718;52.124;6.226;2023-08-06T03:09:22;100406.75;;;14.93;100.00
76022;BME280;64718;52.124;6.226;2023-08-06T03:11:49;100405.78;;;14.81;100.00
76022;BME280;64718;52.124;6.226;2023-08-06T03:14:15;100401.72;;;14.77;100.00
76022;BME280;64718;52.124;6.226;2023-08-06T03:16:42;100409.88;;;14.85;100.00
76022;BME280;64718;52.124;6.226;2023-08-06T03:19:10;100408.53;;;14.92;100.00
76022;BME280;64718;52.124;6.226;2023-08-06T03:21:36;100405.91;;;14.92;100.00
76022;BME280;64718;52.124;6.226;2023-08-06T03:24:03;100406.13;;;14.89;100.00
76022;BME280;64718;52.124;6.226;2023-08-06T03:26:30;100400.16;;;14.87;100.00
76022;BME280;64718;52.124;6.226;2023-08-06T03:28:56;100397.72;;;14.84;100.00
76022;BME280;64718;52.124;6.226;2023-08-06T03:31:23;100402.88;;;14.85;100.00
76022;BME280;64718;52.124;6.226;2023-08-06T03:33:49;100400.47;;;14.82;100.00
76022;BME280;64718;52.124;6.226;2023-08-06T03:36:17;100400.03;;;14.76;100.00
76022;BME280;64718;52.124;6.226;2023-08-06T03:38:44;100392.81;;;14.79;100.00
76022;BME280;64718;52.124;6.226;2023-08-06T03:41:10;100396.78;;;14.72;100.00
76022;BME280;64718;52.124;6.226;2023-08-06T03:43:37;100388.94;;;14.72;100.00
76022;BME280;64718;52.124;6.226;2023-08-06T03:46:04;100393.84;;;14.64;100.00
76022;BME280;64718;52.124;6.226;2023-08-06T03:48:30;100397.19;;;14.66;100.00
76022;BME280;64718;52.124;6.226;2023-08-06T03:50:57;100393.75;;;14.66;100.00
76022;BME280;64718;52.124;6.226;2023-08-06T03:53:27;100401.19;;;14.72;100.00
76022;BME280;64718;52.124;6.226;2023-08-06T03:55:54;100401.06;;;14.73;100.00
76022;BME280;64718;52.124;6.226;2023-08-06T03:58:21;100410.50;;;14.76;100.00
76022;BME280;64718;52.124;6.226;2023-08-06T04:00:47;100399.28;;;14.74;100.00
76022;BME280;64718;52.124;6.226;2023-08-06T04:03:14;100397.50;;;14.74;100.00
76022;BME280;64718;52.124;6.226;2023-08-06T04:05:41;100406.09;;;14.76;100.00
76022;BME280;64718;52.124;6.226;2023-08-06T04:08:07;100405.06;;;14.79;100.00
76022;BME280;64718;52.124;6.226;2023-08-06T04:10:35;100407.03;;;14.75;100.00
76022;BME280;64718;52.124;6.226;2023-08-06T04:13:02;100409.78;;;14.74;100.00
76022;BME280;64718;52.124;6.226;2023-08-06T04:15:28;100413.03;;;14.77;100.00
76022;BME280;64718;52.124;6.226;2023-08-06T04:17:55;100405.16;;;14.77;100.00
76022;BME280;64718;52.124;6.226;2023-08-06T04:20:22;100406.75;;;14.80;100.00
76022;BME280;64718;52.124;6.226;2023-08-06T04:22:48;100405.06;;;14.79;100.00
76022;BME280;64718;52.124;6.226;2023-08-06T04:25:15;100402.53;;;14.77;100.00
76022;BME280;64718;52.124;6.226;2023-08-06T04:27:47;100401.72;;;14.77;100.00
76022;BME280;64718;52.124;6.226;2023-08-06T04:30:14;100397.94;;;14.81;100.00
76022;BME280;64718;52.124;6.226;2023-08-06T04:32:40;100403.06;;;14.82;100.00
76022;BME280;64718;52.124;6.226;2023-08-06T04:35:07;100407.16;;;14.86;100.00
76022;BME280;64718;52.124;6.226;2023-08-06T04:37:34;100403.72;;;14.86;100.00
76022;BME280;64718;52.124;6.226;2023-08-06T04:40:00;100400.97;;;14.87;100.00
76022;BME280;64718;52.124;6.226;2023-08-06T04:42:27;100411.34;;;14.89;100.00
76022;BME280;64718;52.124;6.226;2023-08-06T04:44:55;100404.44;;;15.01;100.00
76022;BME280;64718;52.124;6.226;2023-08-06T04:47:22;100415.03;;;14.86;100.00
76022;BME280;64718;52.124;6.226;2023-08-06T04:49:48;100413.88;;;14.91;100.00
76022;BME280;64718;52.124;6.226;2023-08-06T04:52:15;100414.63;;;15.05;100.00
76022;BME280;64718;52.124;6.226;2023-08-06T04:54:41;100421.22;;;14.98;100.00
76022;BME280;64718;52.124;6.226;2023-08-06T04:57:08;100422.03;;;14.99;100.00
76022;BME280;64718;52.124;6.226;2023-08-06T04:59:35;100418.19;;;15.04;100.00
76022;BME280;64718;52.124;6.226;2023-08-06T05:02:03;100419.88;;;15.05;100.00
76022;BME280;64718;52.124;6.226;2023-08-06T05:04:30;100421.88;;;15.14;100.00
76022;BME280;64718;52.124;6.226;2023-08-06T05:06:58;100415.56;;;15.17;100.00
76022;BME280;64718;52.124;6.226;2023-08-06T05:09:25;100413.38;;;15.11;100.00
76022;BME280;64718;52.124;6.226;2023-08-06T05:11:52;100429.53;;;15.17;100.00
76022;BME280;64718;52.124;6.226;2023-08-06T05:14:18;100428.25;;;15.23;100.00
76022;BME280;64718;52.124;6.226;2023-08-06T05:16:45;100424.47;;;15.27;100.00
76022;BME280;64718;52.124;6.226;2023-08-06T05:19:13;100422.28;;;15.34;100.00
76022;BME280;64718;52.124;6.226;2023-08-06T05:21:40;100427.94;;;15.40;100.00
76022;BME280;64718;52.124;6.226;2023-08-06T05:24:06;100425.81;;;15.45;100.00
76022;BME280;64718;52.124;6.226;2023-08-06T05:26:33;100429.59;;;15.41;100.00
76022;BME280;64718;52.124;6.226;2023-08-06T05:29:00;100423.75;;;15.63;100.00
76022;BME280;64718;52.124;6.226;2023-08-06T05:31:27;100429.19;;;15.60;100.00
76022;BME280;64718;52.124;6.226;2023-08-06T05:33:54;100432.56;;;15.62;100.00
76022;BME280;64718;52.124;6.226;2023-08-06T05:36:22;100435.94;;;15.64;100.00
76022;BME280;64718;52.124;6.226;2023-08-06T05:38:48;100432.69;;;15.61;100.00
76022;BME280;64718;52.124;6.226;2023-08-06T05:41:15;100437.25;;;15.57;100.00
76022;BME280;64718;52.124;6.226;2023-08-06T05:43:41;100437.25;;;15.57;100.00
76022;BME280;64718;52.124;6.226;2023-08-06T05:46:08;100439.50;;;15.63;100.00
76022;BME280;64718;52.124;6.226;2023-08-06T05:48:35;100435.50;;;15.58;100.00
76022;BME280;64718;52.124;6.226;2023-08-06T05:51:01;100439.84;;;15.57;100.00
76022;BME280;64718;52.124;6.226;2023-08-06T05:53:29;100447.84;;;15.56;100.00
76022;BME280;64718;52.124;6.226;2023-08-06T05:55:56;100453.19;;;15.54;100.00
76022;BME280;64718;52.124;6.226;2023-08-06T05:58:22;100447.00;;;15.55;100.00
76022;BME280;64718;52.124;6.226;2023-08-06T06:00:51;100450.94;;;15.62;100.00
76022;BME280;64718;52.124;6.226;2023-08-06T06:03:18;100456.16;;;15.62;100.00
76022;BME280;64718;52.124;6.226;2023-08-06T06:05:44;100453.00;;;15.70;100.00
76022;BME280;64718;52.124;6.226;2023-08-06T06:08:11;100454.38;;;15.75;100.00
76022;BME280;64718;52.124;6.226;2023-08-06T06:10:39;100457.50;;;15.80;100.00
76022;BME280;64718;52.124;6.226;2023-08-06T06:13:06;100462.75;;;15.80;100.00
76022;BME280;64718;52.124;6.226;2023-08-06T06:15:32;100463.78;;;15.91;100.00
76022;BME280;64718;52.124;6.226;2023-08-06T06:17:59;100461.53;;;15.97;100.00
76022;BME280;64718;52.124;6.226;2023-08-06T06:20:25;100471.38;;;16.06;100.00
76022;BME280;64718;52.124;6.226;2023-08-06T06:22:52;100469.50;;;16.08;100.00
76022;BME280;64718;52.124;6.226;2023-08-06T06:25:18;100472.72;;;16.12;100.00
76022;BME280;64718;52.124;6.226;2023-08-06T06:27:46;100470.19;;;16.23;100.00
76022;BME280;64718;52.124;6.226;2023-08-06T06:30:13;100472.22;;;16.20;100.00
76022;BME280;64718;52.124;6.226;2023-08-06T06:32:39;100470.66;;;16.41;100.00
76022;BME280;64718;52.124;6.226;2023-08-06T06:35:07;100471.94;;;16.35;100.00
76022;BME280;64718;52.124;6.226;2023-08-06T06:37:33;100474.50;;;16.48;100.00
76022;BME280;64718;52.124;6.226;2023-08-06T06:40:00;100476.28;;;16.48;100.00
76022;BME280;64718;52.124;6.226;2023-08-06T06:42:26;100477.19;;;16.59;100.00
76022;BME280;64718;52.124;6.226;2023-08-06T06:44:54;100473.59;;;16.60;100.00
76022;BME280;64718;52.124;6.226;2023-08-06T06:47:21;100473.94;;;16.56;100.00
76022;BME280;64718;52.124;6.226;2023-08-06T06:49:47;100479.09;;;16.57;100.00
76022;BME280;64718;52.124;6.226;2023-08-06T06:52:14;100477.25;;;16.70;100.00
76022;BME280;64718;52.124;6.226;2023-08-06T06:54:40;100491.41;;;16.81;100.00
76022;BME280;64718;52.124;6.226;2023-08-06T06:57:07;100478.19;;;16.93;100.00
76022;BME280;64718;52.124;6.226;2023-08-06T06:59:34;100479.16;;;16.92;100.00
76022;BME280;64718;52.124;6.226;2023-08-06T07:02:02;100480.59;;;16.96;100.00
76022;BME280;64718;52.124;6.226;2023-08-06T07:04:28;100483.78;;;16.89;100.00
76022;BME280;64718;52.124;6.226;2023-08-06T07:06:55;100490.38;;;16.94;100.00
76022;BME280;64718;52.124;6.226;2023-08-06T07:09:21;100487.16;;;16.91;100.00
76022;BME280;64718;52.124;6.226;2023-08-06T07:11:48;100495.13;;;16.89;100.00
76022;BME280;64718;52.124;6.226;2023-08-06T07:14:15;100491.91;;;16.86;100.00
76022;BME280;64718;52.124;6.226;2023-08-06T07:16:41;100499.22;;;16.93;100.00
76022;BME280;64718;52.124;6.226;2023-08-06T07:19:09;100500.00;;;16.83;100.00
76022;BME280;64718;52.124;6.226;2023-08-06T07:21:36;100489.91;;;17.00;100.00
76022;BME280;64718;52.124;6.226;2023-08-06T07:24:03;100498.81;;;17.22;100.00
76022;BME280;64718;52.124;6.226;2023-08-06T07:26:29;100492.47;;;17.13;100.00
76022;BME280;64718;52.124;6.226;2023-08-06T07:28:56;100492.00;;;17.19;100.00
76022;BME280;64718;52.124;6.226;2023-08-06T07:31:23;100498.94;;;17.20;100.00
76022;BME280;64718;52.124;6.226;2023-08-06T07:33:49;100509.66;;;17.06;100.00
76022;BME280;64718;52.124;6.226;2023-08-06T07:36:17;100505.25;;;17.18;100.00
76022;BME280;64718;52.124;6.226;2023-08-06T07:38:44;100503.47;;;17.18;100.00
76022;BME280;64718;52.124;6.226;2023-08-06T07:41:10;100502.38;;;17.21;100.00
76022;BME280;64718;52.124;6.226;2023-08-06T07:43:37;100501.03;;;17.39;100.00
76022;BME280;64718;52.124;6.226;2023-08-06T07:46:04;100503.53;;;17.52;100.00
76022;BME280;64718;52.124;6.226;2023-08-06T07:48:30;100503.41;;;17.53;100.00
76022;BME280;64718;52.124;6.226;2023-08-06T07:50:57;100508.25;;;17.70;100.00
76022;BME280;64718;52.124;6.226;2023-08-06T07:53:26;100505.88;;;18.01;100.00
76022;BME280;64718;52.124;6.226;2023-08-06T07:55:54;100503.72;;;18.06;100.00
76022;BME280;64718;52.124;6.226;2023-08-06T07:58:21;100502.47;;;18.32;100.00
76022;BME280;64718;52.124;6.226;2023-08-06T08:00:48;100496.06;;;18.57;100.00
76022;BME280;64718;52.124;6.226;2023-08-06T08:03:15;100499.66;;;18.56;100.00
76022;BME280;64718;52.124;6.226;2023-08-06T08:05:42;100496.31;;;18.54;100.00
76022;BME280;64718;52.124;6.226;2023-08-06T08:08:09;100492.84;;;18.65;100.00
76022;BME280;64718;52.124;6.226;2023-08-06T08:10:37;100497.75;;;18.47;100.00
76022;BME280;64718;52.124;6.226;2023-08-06T08:13:04;100492.56;;;18.14;100.00
76022;BME280;64718;52.124;6.226;2023-08-06T08:15:31;100492.47;;;17.93;100.00
76022;BME280;64718;52.124;6.226;2023-08-06T08:17:58;100500.47;;;17.80;100.00
76022;BME280;64718;52.124;6.226;2023-08-06T08:20:25;100499.63;;;17.91;100.00
76022;BME280;64718;52.124;6.226;2023-08-06T08:22:57;100498.09;;;17.99;100.00
76022;BME280;64718;52.124;6.226;2023-08-06T08:25:23;100495.53;;;18.20;100.00
76022;BME280;64718;52.124;6.226;2023-08-06T08:27:51;100499.09;;;18.42;100.00
76022;BME280;64718;52.124;6.226;2023-08-06T08:30:18;100494.59;;;18.76;100.00
76022;BME280;64718;52.124;6.226;2023-08-06T08:32:44;100502.81;;;18.82;99.97
76022;BME280;64718;52.124;6.226;2023-08-06T08:35:11;100498.94;;;19.18;100.00
76022;BME280;64718;52.124;6.226;2023-08-06T08:37:38;100500.22;;;19.45;98.09
76022;BME280;64718;52.124;6.226;2023-08-06T08:40:06;100497.47;;;19.67;99.11
76022;BME280;64718;52.124;6.226;2023-08-06T08:42:33;100505.56;;;19.75;97.00
76022;BME280;64718;52.124;6.226;2023-08-06T08:45:01;100506.75;;;19.50;95.52
76022;BME280;64718;52.124;6.226;2023-08-06T08:47:28;100508.41;;;19.21;95.69
76022;BME280;64718;52.124;6.226;2023-08-06T08:49:55;100498.44;;;18.72;97.50
76022;BME280;64718;52.124;6.226;2023-08-06T08:52:23;100510.91;;;18.70;100.00
76022;BME280;64718;52.124;6.226;2023-08-06T08:54:52;100509.81;;;18.72;99.69
76022;BME280;64718;52.124;6.226;2023-08-06T08:59:48;100516.63;;;18.75;100.00
76022;BME280;64718;52.124;6.226;2023-08-06T09:02:16;100511.81;;;18.80;100.00
76022;BME280;64718;52.124;6.226;2023-08-06T09:04:42;100504.91;;;19.00;99.28
76022;BME280;64718;52.124;6.226;2023-08-06T09:07:13;100515.06;;;19.04;98.58
76022;BME280;64718;52.124;6.226;2023-08-06T09:09:43;100513.03;;;19.08;98.43
76022;BME280;64718;52.124;6.226;2023-08-06T09:12:12;100507.31;;;19.23;96.85
76022;BME280;64718;52.124;6.226;2023-08-06T09:14:40;100508.06;;;19.56;96.46
76022;BME280;64718;52.124;6.226;2023-08-06T09:17:07;100516.25;;;19.74;95.44
76022;BME280;64718;52.124;6.226;2023-08-06T09:19:37;100519.84;;;19.31;94.35
76022;BME280;64718;52.124;6.226;2023-08-06T09:22:04;100517.34;;;19.30;95.91
76022;BME280;64718;52.124;6.226;2023-08-06T09:24:38;100517.59;;;19.26;96.88
76022;BME280;64718;52.124;6.226;2023-08-06T09:27:05;100521.63;;;19.51;97.96
76022;BME280;64718;52.124;6.226;2023-08-06T09:29:31;100526.13;;;19.81;96.07
76022;BME280;64718;52.124;6.226;2023-08-06T09:31:58;100528.69;;;19.93;94.74
76022;BME280;64718;52.124;6.226;2023-08-06T09:34:25;100533.47;;;20.08;91.39
76022;BME280;64718;52.124;6.226;2023-08-06T09:36:54;100533.47;;;20.08;91.23
76022;BME280;64718;52.124;6.226;2023-08-06T09:39:21;100534.44;;;20.07;91.06
76022;BME280;64718;52.124;6.226;2023-08-06T09:41:48;100535.63;;;20.34;89.31
76022;BME280;64718;52.124;6.226;2023-08-06T09:44:21;100525.28;;;20.80;88.50
76022;BME280;64718;52.124;6.226;2023-08-06T09:46:49;100526.28;;;20.89;84.16
76022;BME280;64718;52.124;6.226;2023-08-06T09:49:18;100528.91;;;21.08;85.69
76022;BME280;64718;52.124;6.226;2023-08-06T09:51:45;100527.50;;;20.75;84.69
76022;BME280;64718;52.124;6.226;2023-08-06T09:54:13;100534.19;;;20.60;87.26
76022;BME280;64718;52.124;6.226;2023-08-06T09:56:42;100536.66;;;20.42;89.70
76022;BME280;64718;52.124;6.226;2023-08-06T09:59:09;100536.22;;;20.07;88.73
76022;BME280;64718;52.124;6.226;2023-08-06T10:01:36;100539.84;;;19.75;90.15
76022;BME280;64718;52.124;6.226;2023-08-06T10:04:05;100542.38;;;19.77;91.89
76022;BME280;64718;52.124;6.226;2023-08-06T10:06:34;100538.38;;;19.41;93.15
76022;BME280;64718;52.124;6.226;2023-08-06T10:09:01;100537.13;;;19.45;96.10
76022;BME280;64718;52.124;6.226;2023-08-06T10:11:29;100543.38;;;19.65;95.77
76022;BME280;64718;52.124;6.226;2023-08-06T10:14:00;100548.47;;;19.56;94.59
76022;BME280;64718;52.124;6.226;2023-08-06T10:16:29;100550.97;;;19.16;95.29
76022;BME280;64718;52.124;6.226;2023-08-06T10:18:56;100541.94;;;18.98;98.22
76022;BME280;64718;52.124;6.226;2023-08-06T10:21:23;100548.03;;;18.67;97.63
76022;BME280;64718;52.124;6.226;2023-08-06T10:23:54;100546.38;;;18.32;99.55
76022;BME280;64718;52.124;6.226;2023-08-06T10:26:25;100542.94;;;18.20;100.00
76022;BME280;64718;52.124;6.226;2023-08-06T10:28:53;100548.09;;;18.11;100.00
76022;BME280;64718;52.124;6.226;2023-08-06T10:31:20;100558.59;;;17.88;100.00
76022;BME280;64718;52.124;6.226;2023-08-06T10:33:47;100547.94;;;17.79;100.00
76022;BME280;64718;52.124;6.226;2023-08-06T10:36:14;100553.22;;;17.79;100.00
76022;BME280;64718;52.124;6.226;2023-08-06T10:38:45;100554.28;;;17.87;100.00
76022;BME280;64718;52.124;6.226;2023-08-06T10:41:16;100549.66;;;18.02;100.00
76022;BME280;64718;52.124;6.226;2023-08-06T10:43:43;100555.75;;;18.14;100.00
76022;BME280;64718;52.124;6.226;2023-08-06T10:46:22;100545.19;;;18.25;100.00
76022;BME280;64718;52.124;6.226;2023-08-06T10:48:49;100544.13;;;18.16;100.00
76022;BME280;64718;52.124;6.226;2023-08-06T10:51:15;100554.19;;;18.22;100.00
76022;BME280;64718;52.124;6.226;2023-08-06T10:53:43;100552.75;;;18.18;100.00
76022;BME280;64718;52.124;6.226;2023-08-06T10:56:13;100552.41;;;18.12;100.00
76022;BME280;64718;52.124;6.226;2023-08-06T10:58:40;100552.75;;;18.18;100.00
76022;BME280;64718;52.124;6.226;2023-08-06T11:01:07;100553.44;;;18.31;100.00
76022;BME280;64718;52.124;6.226;2023-08-06T11:03:35;100562.28;;;18.42;100.00
76022;BME280;64718;52.124;6.226;2023-08-06T11:06:03;100561.81;;;18.37;100.00
76022;BME280;64718;52.124;6.226;2023-08-06T11:08:35;100567.31;;;18.45;100.00
76022;BME280;64718;52.124;6.226;2023-08-06T11:11:08;100556.19;;;18.63;100.00
76022;BME280;64718;52.124;6.226;2023-08-06T11:13:36;100552.09;;;18.71;100.00
76022;BME280;64718;52.124;6.226;2023-08-06T11:16:04;100557.41;;;18.91;100.00
76022;BME280;64718;52.124;6.226;2023-08-06T11:18:31;100554.28;;;18.98;100.00
76022;BME280;64718;52.124;6.226;2023-08-06T11:21:00;100553.34;;;18.87;99.23
76022;BME280;64718;52.124;6.226;2023-08-06T11:23:27;100556.88;;;18.77;100.00
76022;BME280;64718;52.124;6.226;2023-08-06T11:25:54;100556.19;;;18.95;100.00
76022;BME280;64718;52.124;6.226;2023-08-06T11:28:21;100556.97;;;19.07;100.00
76022;BME280;64718;52.124;6.226;2023-08-06T11:30:47;100556.38;;;19.15;99.21
76022;BME280;64718;52.124;6.226;2023-08-06T11:33:14;100559.34;;;19.42;100.00
76022;BME280;64718;52.124;6.226;2023-08-06T11:35:41;100560.31;;;19.62;99.98
76022;BME280;64718;52.124;6.226;2023-08-06T11:38:09;100559.34;;;19.63;98.12
76022;BME280;64718;52.124;6.226;2023-08-06T11:40:35;100562.09;;;19.41;98.64
76022;BME280;64718;52.124;6.226;2023-08-06T11:43:02;100568.53;;;19.27;100.00
76022;BME280;64718;52.124;6.226;2023-08-06T11:45:29;100566.69;;;19.39;100.00
76022;BME280;64718;52.124;6.226;2023-08-06T11:47:55;100570.59;;;19.23;100.00
76022;BME280;64718;52.124;6.226;2023-08-06T11:50:24;100566.59;;;19.08;100.00
76022;BME280;64718;52.124;6.226;2023-08-06T11:52:53;100568.28;;;19.09;100.00
76022;BME280;64718;52.124;6.226;2023-08-06T11:55:23;100567.19;;;19.12;100.00
76022;BME280;64718;52.124;6.226;2023-08-06T11:57:51;100569.44;;;19.16;100.00
76022;BME280;64718;52.124;6.226;2023-08-06T12:00:18;100572.59;;;18.99;100.00
76022;BME280;64718;52.124;6.226;2023-08-06T12:02:48;100575.53;;;18.85;100.00
76022;BME280;64718;52.124;6.226;2023-08-06T12:05:16;100585.38;;;18.72;100.00
76022;BME280;64718;52.124;6.226;2023-08-06T12:07:47;100579.16;;;18.73;100.00
76022;BME280;64718;52.124;6.226;2023-08-06T12:10:14;100584.56;;;18.38;100.00
76022;BME280;64718;52.124;6.226;2023-08-06T12:12:42;100583.38;;;18.30;100.00
76022;BME280;64718;52.124;6.226;2023-08-06T12:15:09;100587.09;;;18.28;100.00
76022;BME280;64718;52.124;6.226;2023-08-06T12:17:36;100594.53;;;18.12;100.00
76022;BME280;64718;52.124;6.226;2023-08-06T12:20:04;100593.50;;;17.79;100.00
76022;BME280;64718;52.124;6.226;2023-08-06T12:22:31;100607.31;;;17.24;100.00
76022;BME280;64718;52.124;6.226;2023-08-06T12:25:00;100609.44;;;16.58;100.00
76022;BME280;64718;52.124;6.226;2023-08-06T12:27:27;100613.38;;;16.27;100.00
76022;BME280;64718;52.124;6.226;2023-08-06T12:29:55;100617.78;;;16.27;100.00
76022;BME280;64718;52.124;6.226;2023-08-06T12:32:22;100619.13;;;16.45;100.00
76022;BME280;64718;52.124;6.226;2023-08-06T12:34:48;100612.50;;;16.52;100.00
76022;BME280;64718;52.124;6.226;2023-08-06T12:37:15;100616.59;;;16.43;100.00
76022;BME280;64718;52.124;6.226;2023-08-06T12:39:41;100618.53;;;16.29;100.00
76022;BME280;64718;52.124;6.226;2023-08-06T12:42:08;100617.59;;;16.30;100.00
76022;BME280;64718;52.124;6.226;2023-08-06T12:44:35;100605.88;;;16.47;100.00
76022;BME280;64718;52.124;6.226;2023-08-06T12:47:03;100609.63;;;16.19;100.00